sensor_id;sensor_type;location;lat;lon;timestamp;temperature;humidity
25906;DHT22;13713;52.552;13.204;2022-12-07T00:01:44;14.90;76.40
25906;DHT22;13713;52.552;13.204;2022-12-07T00:04:12;14.90;76.40
25906;DHT22;13713;52.552;13.204;2022-12-07T00:06:40;14.90;76.40
25906;DHT22;13713;52.552;13.204;2022-12-07T00:09:09;14.90;76.40
25906;DHT22;13713;52.552;13.204;2022-12-07T00:11:35;14.90;76.40
25906;DHT22;13713;52.552;13.204;2022-12-07T00:14:03;14.90;76.40
25906;DHT22;13713;52.552;13.204;2022-12-07T00:16:31;14.90;76.40
25906;DHT22;13713;52.552;13.204;2022-12-07T00:18:57;14.90;76.40
25906;DHT22;13713;52.552;13.204;2022-12-07T00:21:25;14.90;76.40
25906;DHT22;13713;52.552;13.204;2022-12-07T00:23:54;14.80;76.30
25906;DHT22;13713;52.552;13.204;2022-12-07T00:26:39;14.90;76.40
25906;DHT22;13713;52.552;13.204;2022-12-07T00:29:25;14.80;76.40
25906;DHT22;13713;52.552;13.204;2022-12-07T00:31:51;14.90;76.40
25906;DHT22;13713;52.552;13.204;2022-12-07T00:34:19;14.80;76.30
25906;DHT22;13713;52.552;13.204;2022-12-07T00:36:44;14.80;76.30
25906;DHT22;13713;52.552;13.204;2022-12-07T00:39:10;14.80;76.30
25906;DHT22;13713;52.552;13.204;2022-12-07T00:41:36;14.80;76.20
25906;DHT22;13713;52.552;13.204;2022-12-07T00:44:02;14.80;76.20
25906;DHT22;13713;52.552;13.204;2022-12-07T00:46:27;14.80;76.30
25906;DHT22;13713;52.552;13.204;2022-12-07T00:48:54;14.80;76.20
25906;DHT22;13713;52.552;13.204;2022-12-07T00:51:21;14.80;76.20
25906;DHT22;13713;52.552;13.204;2022-12-07T00:53:47;14.80;76.20
25906;DHT22;13713;52.552;13.204;2022-12-07T00:56:20;14.80;76.20
25906;DHT22;13713;52.552;13.204;2022-12-07T00:58:53;14.80;76.20
25906;DHT22;13713;52.552;13.204;2022-12-07T01:01:19;14.80;77.00
25906;DHT22;13713;52.552;13.204;2022-12-07T01:03:45;14.70;76.10
25906;DHT22;13713;52.552;13.204;2022-12-07T01:06:17;14.70;76.10
25906;DHT22;13713;52.552;13.204;2022-12-07T01:08:44;14.70;76.20
25906;DHT22;13713;52.552;13.204;2022-12-07T01:11:13;14.70;76.10
25906;DHT22;13713;52.552;13.204;2022-12-07T01:13:39;14.70;76.10
25906;DHT22;13713;52.552;13.204;2022-12-07T01:16:07;14.70;76.10
25906;DHT22;13713;52.552;13.204;2022-12-07T01:18:34;14.70;76.10
25906;DHT22;13713;52.552;13.204;2022-12-07T01:23:27;14.70;76.10
25906;DHT22;13713;52.552;13.204;2022-12-07T01:25:55;14.70;76.10
25906;DHT22;13713;52.552;13.204;2022-12-07T01:28:21;14.60;76.00
25906;DHT22;13713;52.552;13.204;2022-12-07T01:31:01;14.70;76.10
25906;DHT22;13713;52.552;13.204;2022-12-07T01:33:29;14.70;76.10
25906;DHT22;13713;52.552;13.204;2022-12-07T01:36:17;14.70;76.00
25906;DHT22;13713;52.552;13.204;2022-12-07T01:38:44;14.70;76.00
25906;DHT22;13713;52.552;13.204;2022-12-07T01:41:10;14.70;76.80
25906;DHT22;13713;52.552;13.204;2022-12-07T01:43:36;14.70;76.00
25906;DHT22;13713;52.552;13.204;2022-12-07T01:46:03;14.60;76.00
25906;DHT22;13713;52.552;13.204;2022-12-07T01:48:36;14.60;75.90
25906;DHT22;13713;52.552;13.204;2022-12-07T01:51:06;14.60;75.90
25906;DHT22;13713;52.552;13.204;2022-12-07T01:53:36;14.60;75.90
25906;DHT22;13713;52.552;13.204;2022-12-07T01:56:03;14.60;76.00
25906;DHT22;13713;52.552;13.204;2022-12-07T01:58:31;14.60;75.90
25906;DHT22;13713;52.552;13.204;2022-12-07T02:00:57;14.60;75.80
25906;DHT22;13713;52.552;13.204;2022-12-07T02:03:51;14.50;75.80
25906;DHT22;13713;52.552;13.204;2022-12-07T02:06:21;14.70;75.90
25906;DHT22;13713;52.552;13.204;2022-12-07T02:08:48;14.50;75.80
25906;DHT22;13713;52.552;13.204;2022-12-07T02:11:14;14.60;75.90
25906;DHT22;13713;52.552;13.204;2022-12-07T02:13:42;14.60;75.80
25906;DHT22;13713;52.552;13.204;2022-12-07T02:24:47;14.50;75.70
25906;DHT22;13713;52.552;13.204;2022-12-07T02:27:25;14.50;75.80
25906;DHT22;13713;52.552;13.204;2022-12-07T02:35:04;14.50;75.70
25906;DHT22;13713;52.552;13.204;2022-12-07T02:38:06;14.50;75.70
25906;DHT22;13713;52.552;13.204;2022-12-07T02:40:48;14.50;75.70
25906;DHT22;13713;52.552;13.204;2022-12-07T02:43:28;14.50;75.70
25906;DHT22;13713;52.552;13.204;2022-12-07T02:46:06;14.40;75.70
25906;DHT22;13713;52.552;13.204;2022-12-07T02:48:33;14.40;75.70
25906;DHT22;13713;52.552;13.204;2022-12-07T02:51:00;14.40;75.70
25906;DHT22;13713;52.552;13.204;2022-12-07T02:53:34;14.40;75.70
25906;DHT22;13713;52.552;13.204;2022-12-07T03:01:52;14.40;75.70
25906;DHT22;13713;52.552;13.204;2022-12-07T03:04:36;14.40;75.60
25906;DHT22;13713;52.552;13.204;2022-12-07T03:09:47;14.40;75.70
25906;DHT22;13713;52.552;13.204;2022-12-07T03:12:24;14.40;75.70
25906;DHT22;13713;52.552;13.204;2022-12-07T03:15:13;14.40;75.70
25906;DHT22;13713;52.552;13.204;2022-12-07T03:17:41;14.40;75.70
25906;DHT22;13713;52.552;13.204;2022-12-07T03:20:11;14.40;75.70
25906;DHT22;13713;52.552;13.204;2022-12-07T03:22:42;14.40;75.70
25906;DHT22;13713;52.552;13.204;2022-12-07T03:25:11;14.30;75.70
25906;DHT22;13713;52.552;13.204;2022-12-07T03:28:06;14.30;75.70
25906;DHT22;13713;52.552;13.204;2022-12-07T03:30:48;14.30;75.60
25906;DHT22;13713;52.552;13.204;2022-12-07T03:33:22;14.30;75.60
25906;DHT22;13713;52.552;13.204;2022-12-07T03:36:00;14.30;75.40
25906;DHT22;13713;52.552;13.204;2022-12-07T03:38:52;14.30;75.30
25906;DHT22;13713;52.552;13.204;2022-12-07T03:41:28;14.30;75.00
25906;DHT22;13713;52.552;13.204;2022-12-07T03:43:55;14.30;74.90
25906;DHT22;13713;52.552;13.204;2022-12-07T03:49:16;14.30;74.60
25906;DHT22;13713;52.552;13.204;2022-12-07T03:54:41;14.20;74.50
25906;DHT22;13713;52.552;13.204;2022-12-07T03:57:10;14.30;74.40
25906;DHT22;13713;52.552;13.204;2022-12-07T03:59:37;14.20;74.50
25906;DHT22;13713;52.552;13.204;2022-12-07T04:02:05;14.20;74.50
25906;DHT22;13713;52.552;13.204;2022-12-07T04:04:31;14.30;74.60
25906;DHT22;13713;52.552;13.204;2022-12-07T04:06:57;14.20;74.70
25906;DHT22;13713;52.552;13.204;2022-12-07T04:09:23;14.10;74.50
25906;DHT22;13713;52.552;13.204;2022-12-07T04:11:49;14.20;74.70
25906;DHT22;13713;52.552;13.204;2022-12-07T04:14:15;14.20;74.90
25906;DHT22;13713;52.552;13.204;2022-12-07T04:16:55;14.20;74.90
25906;DHT22;13713;52.552;13.204;2022-12-07T04:19:27;14.20;74.80
25906;DHT22;13713;52.552;13.204;2022-12-07T04:21:53;14.20;74.80
25906;DHT22;13713;52.552;13.204;2022-12-07T04:24:19;14.20;74.70
25906;DHT22;13713;52.552;13.204;2022-12-07T04:26:46;14.20;74.70
25906;DHT22;13713;52.552;13.204;2022-12-07T04:29:12;14.20;74.90
25906;DHT22;13713;52.552;13.204;2022-12-07T04:31:38;14.20;74.90
25906;DHT22;13713;52.552;13.204;2022-12-07T04:34:04;14.20;74.90
25906;DHT22;13713;52.552;13.204;2022-12-07T04:36:30;14.20;75.00
25906;DHT22;13713;52.552;13.204;2022-12-07T04:38:56;14.20;74.90
25906;DHT22;13713;52.552;13.204;2022-12-07T04:41:23;14.20;74.90
25906;DHT22;13713;52.552;13.204;2022-12-07T04:43:55;14.20;75.50
25906;DHT22;13713;52.552;13.204;2022-12-07T04:46:22;14.20;74.60
25906;DHT22;13713;52.552;13.204;2022-12-07T04:48:48;14.10;74.70
25906;DHT22;13713;52.552;13.204;2022-12-07T04:51:18;14.10;74.80
25906;DHT22;13713;52.552;13.204;2022-12-07T04:53:44;14.10;74.80
25906;DHT22;13713;52.552;13.204;2022-12-07T04:56:10;14.20;74.90
25906;DHT22;13713;52.552;13.204;2022-12-07T04:58:35;14.20;74.90
25906;DHT22;13713;52.552;13.204;2022-12-07T05:01:01;14.10;74.80
25906;DHT22;13713;52.552;13.204;2022-12-07T05:03:27;14.10;74.80
25906;DHT22;13713;52.552;13.204;2022-12-07T05:05:52;14.10;74.90
25906;DHT22;13713;52.552;13.204;2022-12-07T05:08:18;14.20;74.90
25906;DHT22;13713;52.552;13.204;2022-12-07T05:10:44;14.10;74.90
25906;DHT22;13713;52.552;13.204;2022-12-07T05:13:09;14.10;74.90
25906;DHT22;13713;52.552;13.204;2022-12-07T05:15:35;14.10;74.90
25906;DHT22;13713;52.552;13.204;2022-12-07T05:18:01;14.10;74.90
25906;DHT22;13713;52.552;13.204;2022-12-07T05:20:26;14.10;74.90
25906;DHT22;13713;52.552;13.204;2022-12-07T05:22:52;14.10;74.80
25906;DHT22;13713;52.552;13.204;2022-12-07T05:25:18;14.20;74.80
25906;DHT22;13713;52.552;13.204;2022-12-07T05:27:43;14.10;74.70
25906;DHT22;13713;52.552;13.204;2022-12-07T05:30:09;14.10;74.50
25906;DHT22;13713;52.552;13.204;2022-12-07T05:32:35;14.10;74.40
25906;DHT22;13713;52.552;13.204;2022-12-07T05:35:01;14.10;74.40
25906;DHT22;13713;52.552;13.204;2022-12-07T05:37:26;14.00;74.40
25906;DHT22;13713;52.552;13.204;2022-12-07T05:39:52;14.10;74.50
25906;DHT22;13713;52.552;13.204;2022-12-07T05:42:18;14.10;74.40
25906;DHT22;13713;52.552;13.204;2022-12-07T05:44:45;14.10;74.40
25906;DHT22;13713;52.552;13.204;2022-12-07T05:47:14;14.10;74.40
25906;DHT22;13713;52.552;13.204;2022-12-07T05:49:40;14.10;74.50
25906;DHT22;13713;52.552;13.204;2022-12-07T05:52:06;14.10;74.60
25906;DHT22;13713;52.552;13.204;2022-12-07T05:54:33;14.10;74.60
25906;DHT22;13713;52.552;13.204;2022-12-07T05:56:58;14.10;74.50
25906;DHT22;13713;52.552;13.204;2022-12-07T05:59:24;14.10;74.60
25906;DHT22;13713;52.552;13.204;2022-12-07T06:01:57;14.10;74.50
25906;DHT22;13713;52.552;13.204;2022-12-07T06:04:25;14.10;74.40
25906;DHT22;13713;52.552;13.204;2022-12-07T06:06:51;14.10;74.40
25906;DHT22;13713;52.552;13.204;2022-12-07T06:09:17;13.90;74.40
25906;DHT22;13713;52.552;13.204;2022-12-07T06:11:46;14.10;74.60
25906;DHT22;13713;52.552;13.204;2022-12-07T06:14:31;14.10;74.70
25906;DHT22;13713;52.552;13.204;2022-12-07T06:16:57;14.10;74.80
25906;DHT22;13713;52.552;13.204;2022-12-07T06:19:22;14.10;74.80
25906;DHT22;13713;52.552;13.204;2022-12-07T06:21:48;14.10;74.70
25906;DHT22;13713;52.552;13.204;2022-12-07T06:24:15;14.10;74.80
25906;DHT22;13713;52.552;13.204;2022-12-07T06:26:41;14.10;74.80
25906;DHT22;13713;52.552;13.204;2022-12-07T06:29:07;14.10;74.80
25906;DHT22;13713;52.552;13.204;2022-12-07T06:31:33;14.10;74.70
25906;DHT22;13713;52.552;13.204;2022-12-07T06:34:05;14.10;74.80
25906;DHT22;13713;52.552;13.204;2022-12-07T06:36:31;14.10;74.90
25906;DHT22;13713;52.552;13.204;2022-12-07T06:38:57;14.10;74.90
25906;DHT22;13713;52.552;13.204;2022-12-07T06:41:23;14.10;74.90
25906;DHT22;13713;52.552;13.204;2022-12-07T06:43:49;14.10;74.90
25906;DHT22;13713;52.552;13.204;2022-12-07T06:46:15;14.10;74.90
25906;DHT22;13713;52.552;13.204;2022-12-07T06:48:42;14.30;75.00
25906;DHT22;13713;52.552;13.204;2022-12-07T06:51:08;14.20;75.00
25906;DHT22;13713;52.552;13.204;2022-12-07T06:53:34;14.30;75.10
25906;DHT22;13713;52.552;13.204;2022-12-07T06:55:59;14.30;75.20
25906;DHT22;13713;52.552;13.204;2022-12-07T06:58:25;14.30;75.20
25906;DHT22;13713;52.552;13.204;2022-12-07T07:00:51;14.30;75.20
25906;DHT22;13713;52.552;13.204;2022-12-07T07:03:17;14.40;75.30
25906;DHT22;13713;52.552;13.204;2022-12-07T07:05:43;14.40;75.30
25906;DHT22;13713;52.552;13.204;2022-12-07T07:08:09;14.40;75.40
25906;DHT22;13713;52.552;13.204;2022-12-07T07:10:35;14.50;75.40
25906;DHT22;13713;52.552;13.204;2022-12-07T07:13:02;14.50;75.40
25906;DHT22;13713;52.552;13.204;2022-12-07T07:15:28;14.60;75.60
25906;DHT22;13713;52.552;13.204;2022-12-07T07:17:53;14.50;75.50
25906;DHT22;13713;52.552;13.204;2022-12-07T07:20:19;14.60;75.50
25906;DHT22;13713;52.552;13.204;2022-12-07T07:22:45;14.60;75.50
25906;DHT22;13713;52.552;13.204;2022-12-07T07:25:11;14.70;75.40
25906;DHT22;13713;52.552;13.204;2022-12-07T07:27:36;14.70;75.60
25906;DHT22;13713;52.552;13.204;2022-12-07T07:30:03;14.70;75.40
25906;DHT22;13713;52.552;13.204;2022-12-07T07:32:29;14.80;75.50
25906;DHT22;13713;52.552;13.204;2022-12-07T07:34:55;14.80;75.60
25906;DHT22;13713;52.552;13.204;2022-12-07T07:37:20;14.80;75.60
25906;DHT22;13713;52.552;13.204;2022-12-07T07:39:46;14.90;75.80
25906;DHT22;13713;52.552;13.204;2022-12-07T07:42:11;14.80;75.60
25906;DHT22;13713;52.552;13.204;2022-12-07T07:44:38;14.90;75.80
25906;DHT22;13713;52.552;13.204;2022-12-07T07:47:03;14.90;75.80
25906;DHT22;13713;52.552;13.204;2022-12-07T07:49:29;15.00;75.90
25906;DHT22;13713;52.552;13.204;2022-12-07T07:51:55;15.00;75.90
25906;DHT22;13713;52.552;13.204;2022-12-07T07:54:20;15.00;75.90
25906;DHT22;13713;52.552;13.204;2022-12-07T07:56:46;15.10;76.00
25906;DHT22;13713;52.552;13.204;2022-12-07T07:59:11;15.10;76.10
25906;DHT22;13713;52.552;13.204;2022-12-07T08:01:37;15.10;76.10
25906;DHT22;13713;52.552;13.204;2022-12-07T08:04:03;15.20;76.20
25906;DHT22;13713;52.552;13.204;2022-12-07T08:06:28;15.20;76.30
25906;DHT22;13713;52.552;13.204;2022-12-07T08:08:54;15.20;76.10
25906;DHT22;13713;52.552;13.204;2022-12-07T08:11:20;15.20;76.10
25906;DHT22;13713;52.552;13.204;2022-12-07T08:13:46;15.30;76.20
25906;DHT22;13713;52.552;13.204;2022-12-07T08:16:15;15.30;76.20
25906;DHT22;13713;52.552;13.204;2022-12-07T08:18:41;15.30;76.20
25906;DHT22;13713;52.552;13.204;2022-12-07T08:21:11;15.40;76.50
25906;DHT22;13713;52.552;13.204;2022-12-07T08:23:36;15.30;76.30
25906;DHT22;13713;52.552;13.204;2022-12-07T08:26:28;15.40;77.10
25906;DHT22;13713;52.552;13.204;2022-12-07T08:28:54;15.50;76.30
25906;DHT22;13713;52.552;13.204;2022-12-07T08:31:20;15.50;76.30
25906;DHT22;13713;52.552;13.204;2022-12-07T08:33:47;15.50;76.40
25906;DHT22;13713;52.552;13.204;2022-12-07T08:36:13;15.50;76.30
25906;DHT22;13713;52.552;13.204;2022-12-07T08:38:40;15.50;76.30
25906;DHT22;13713;52.552;13.204;2022-12-07T08:41:07;15.50;76.30
25906;DHT22;13713;52.552;13.204;2022-12-07T08:43:34;15.60;76.40
25906;DHT22;13713;52.552;13.204;2022-12-07T08:46:13;15.60;76.40
25906;DHT22;13713;52.552;13.204;2022-12-07T08:51:13;15.70;76.60
25906;DHT22;13713;52.552;13.204;2022-12-07T08:53:39;15.80;76.50
25906;DHT22;13713;52.552;13.204;2022-12-07T08:56:06;15.80;76.70
25906;DHT22;13713;52.552;13.204;2022-12-07T08:58:33;15.80;76.60
25906;DHT22;13713;52.552;13.204;2022-12-07T09:00:59;15.80;76.50
25906;DHT22;13713;52.552;13.204;2022-12-07T09:03:25;15.80;76.30
25906;DHT22;13713;52.552;13.204;2022-12-07T09:05:51;15.90;76.40
25906;DHT22;13713;52.552;13.204;2022-12-07T09:08:17;15.90;77.10
25906;DHT22;13713;52.552;13.204;2022-12-07T09:10:43;15.80;76.40
25906;DHT22;13713;52.552;13.204;2022-12-07T09:13:09;15.90;76.40
25906;DHT22;13713;52.552;13.204;2022-12-07T09:15:34;16.00;76.50
25906;DHT22;13713;52.552;13.204;2022-12-07T09:18:00;16.00;76.50
25906;DHT22;13713;52.552;13.204;2022-12-07T09:20:26;16.00;76.50
25906;DHT22;13713;52.552;13.204;2022-12-07T09:22:51;16.00;76.40
25906;DHT22;13713;52.552;13.204;2022-12-07T09:25:17;16.00;76.40
25906;DHT22;13713;52.552;13.204;2022-12-07T09:27:43;16.10;76.50
25906;DHT22;13713;52.552;13.204;2022-12-07T09:30:08;16.10;76.50
25906;DHT22;13713;52.552;13.204;2022-12-07T09:32:34;16.10;76.50
25906;DHT22;13713;52.552;13.204;2022-12-07T09:35:00;16.10;76.60
25906;DHT22;13713;52.552;13.204;2022-12-07T09:37:26;16.20;76.50
25906;DHT22;13713;52.552;13.204;2022-12-07T09:39:51;16.20;76.50
25906;DHT22;13713;52.552;13.204;2022-12-07T09:42:29;16.30;76.60
25906;DHT22;13713;52.552;13.204;2022-12-07T09:44:59;16.30;77.40
25906;DHT22;13713;52.552;13.204;2022-12-07T09:47:25;16.30;76.70
25906;DHT22;13713;52.552;13.204;2022-12-07T09:49:52;16.30;76.70
25906;DHT22;13713;52.552;13.204;2022-12-07T09:52:25;16.40;76.70
25906;DHT22;13713;52.552;13.204;2022-12-07T09:54:52;16.40;76.70
25906;DHT22;13713;52.552;13.204;2022-12-07T09:57:22;16.40;77.50
25906;DHT22;13713;52.552;13.204;2022-12-07T09:59:50;16.50;76.80
25906;DHT22;13713;52.552;13.204;2022-12-07T10:02:39;16.50;76.80
25906;DHT22;13713;52.552;13.204;2022-12-07T10:05:16;16.50;76.70
25906;DHT22;13713;52.552;13.204;2022-12-07T10:07:44;16.60;76.70
25906;DHT22;13713;52.552;13.204;2022-12-07T10:10:24;16.60;76.80
25906;DHT22;13713;52.552;13.204;2022-12-07T10:13:00;16.60;76.80
25906;DHT22;13713;52.552;13.204;2022-12-07T10:18:34;16.60;76.70
25906;DHT22;13713;52.552;13.204;2022-12-07T10:21:16;16.70;76.90
25906;DHT22;13713;52.552;13.204;2022-12-07T10:24:12;16.70;77.00
25906;DHT22;13713;52.552;13.204;2022-12-07T10:31:41;16.80;77.00
25906;DHT22;13713;52.552;13.204;2022-12-07T10:34:22;16.80;77.00
25906;DHT22;13713;52.552;13.204;2022-12-07T10:36:50;16.80;77.10
25906;DHT22;13713;52.552;13.204;2022-12-07T10:39:19;16.90;77.20
25906;DHT22;13713;52.552;13.204;2022-12-07T10:44:29;16.90;77.20
25906;DHT22;13713;52.552;13.204;2022-12-07T10:47:17;16.90;77.30
25906;DHT22;13713;52.552;13.204;2022-12-07T10:55:46;17.00;77.30
25906;DHT22;13713;52.552;13.204;2022-12-07T11:09:53;17.10;77.50
25906;DHT22;13713;52.552;13.204;2022-12-07T11:15:24;17.20;77.60
25906;DHT22;13713;52.552;13.204;2022-12-07T11:18:11;17.20;77.60
25906;DHT22;13713;52.552;13.204;2022-12-07T11:24:21;17.20;77.70
25906;DHT22;13713;52.552;13.204;2022-12-07T11:27:51;17.30;78.10
25906;DHT22;13713;52.552;13.204;2022-12-07T11:38:13;17.40;77.90
25906;DHT22;13713;52.552;13.204;2022-12-07T11:40:40;17.40;78.00
25906;DHT22;13713;52.552;13.204;2022-12-07T11:43:31;17.40;78.00
25906;DHT22;13713;52.552;13.204;2022-12-07T11:45:59;17.50;78.20
25906;DHT22;13713;52.552;13.204;2022-12-07T11:48:34;17.50;78.20
25906;DHT22;13713;52.552;13.204;2022-12-07T11:51:01;17.50;78.10
25906;DHT22;13713;52.552;13.204;2022-12-07T11:54:05;17.50;78.10
25906;DHT22;13713;52.552;13.204;2022-12-07T11:56:37;17.60;78.20
25906;DHT22;13713;52.552;13.204;2022-12-07T12:01:58;17.60;78.20
25906;DHT22;13713;52.552;13.204;2022-12-07T12:05:04;17.70;78.30
25906;DHT22;13713;52.552;13.204;2022-12-07T12:07:23;17.70;78.20
25906;DHT22;13713;52.552;13.204;2022-12-07T12:09:54;17.70;78.30
25906;DHT22;13713;52.552;13.204;2022-12-07T12:20:48;17.80;78.50
25906;DHT22;13713;52.552;13.204;2022-12-07T12:23:56;17.80;78.50
25906;DHT22;13713;52.552;13.204;2022-12-07T12:26:27;17.80;78.50
25906;DHT22;13713;52.552;13.204;2022-12-07T12:29:00;17.90;78.50
25906;DHT22;13713;52.552;13.204;2022-12-07T12:33:58;17.90;78.50
25906;DHT22;13713;52.552;13.204;2022-12-07T12:39:21;17.90;78.40
25906;DHT22;13713;52.552;13.204;2022-12-07T12:51:52;18.00;78.50
25906;DHT22;13713;52.552;13.204;2022-12-07T12:57:18;18.10;78.60
25906;DHT22;13713;52.552;13.204;2022-12-07T13:02:47;18.10;78.50
25906;DHT22;13713;52.552;13.204;2022-12-07T13:28:39;18.30;78.60
25906;DHT22;13713;52.552;13.204;2022-12-07T13:33:39;18.30;78.60
25906;DHT22;13713;52.552;13.204;2022-12-07T13:36:17;18.40;78.50
25906;DHT22;13713;52.552;13.204;2022-12-07T13:38:50;18.40;78.60
25906;DHT22;13713;52.552;13.204;2022-12-07T13:41:19;18.40;78.50
25906;DHT22;13713;52.552;13.204;2022-12-07T13:44:00;18.50;78.50
25906;DHT22;13713;52.552;13.204;2022-12-07T13:49:21;18.50;78.40
25906;DHT22;13713;52.552;13.204;2022-12-07T13:51:47;18.50;78.40
25906;DHT22;13713;52.552;13.204;2022-12-07T13:54:14;18.60;78.40
25906;DHT22;13713;52.552;13.204;2022-12-07T13:56:41;18.60;78.50
25906;DHT22;13713;52.552;13.204;2022-12-07T13:59:16;18.50;78.30
25906;DHT22;13713;52.552;13.204;2022-12-07T14:01:45;18.60;78.40
25906;DHT22;13713;52.552;13.204;2022-12-07T14:04:33;18.60;78.40
25906;DHT22;13713;52.552;13.204;2022-12-07T14:07:00;18.70;78.50
25906;DHT22;13713;52.552;13.204;2022-12-07T14:09:28;18.70;78.50
25906;DHT22;13713;52.552;13.204;2022-12-07T14:11:56;18.70;78.40
25906;DHT22;13713;52.552;13.204;2022-12-07T14:14:25;18.70;78.40
25906;DHT22;13713;52.552;13.204;2022-12-07T14:17:15;18.70;78.40
25906;DHT22;13713;52.552;13.204;2022-12-07T14:19:46;18.70;78.40
25906;DHT22;13713;52.552;13.204;2022-12-07T14:24:50;18.70;78.50
25906;DHT22;13713;52.552;13.204;2022-12-07T14:27:18;18.70;78.50
25906;DHT22;13713;52.552;13.204;2022-12-07T14:29:45;18.80;78.50
25906;DHT22;13713;52.552;13.204;2022-12-07T14:32:31;18.80;78.60
25906;DHT22;13713;52.552;13.204;2022-12-07T14:35:17;18.80;78.60
25906;DHT22;13713;52.552;13.204;2022-12-07T14:37:46;18.80;78.60
25906;DHT22;13713;52.552;13.204;2022-12-07T14:40:17;18.80;78.70
25906;DHT22;13713;52.552;13.204;2022-12-07T14:42:45;18.80;78.60
25906;DHT22;13713;52.552;13.204;2022-12-07T14:45:17;18.90;78.60
25906;DHT22;13713;52.552;13.204;2022-12-07T14:47:44;18.80;78.50
25906;DHT22;13713;52.552;13.204;2022-12-07T14:50:15;18.90;78.60
25906;DHT22;13713;52.552;13.204;2022-12-07T14:52:42;18.90;78.60
25906;DHT22;13713;52.552;13.204;2022-12-07T14:55:23;18.90;78.60
25906;DHT22;13713;52.552;13.204;2022-12-07T14:57:48;18.90;78.60
25906;DHT22;13713;52.552;13.204;2022-12-07T15:00:15;18.90;78.70
25906;DHT22;13713;52.552;13.204;2022-12-07T15:02:43;18.90;78.70
25906;DHT22;13713;52.552;13.204;2022-12-07T15:05:08;18.90;78.60
25906;DHT22;13713;52.552;13.204;2022-12-07T15:07:34;19.00;78.80
25906;DHT22;13713;52.552;13.204;2022-12-07T15:10:00;18.90;78.90
25906;DHT22;13713;52.552;13.204;2022-12-07T15:12:26;19.00;79.20
25906;DHT22;13713;52.552;13.204;2022-12-07T15:14:52;18.90;79.20
25906;DHT22;13713;52.552;13.204;2022-12-07T15:17:18;18.90;79.10
25906;DHT22;13713;52.552;13.204;2022-12-07T15:19:44;18.90;79.10
25906;DHT22;13713;52.552;13.204;2022-12-07T15:22:09;18.90;78.80
25906;DHT22;13713;52.552;13.204;2022-12-07T15:24:36;18.80;78.90
25906;DHT22;13713;52.552;13.204;2022-12-07T15:27:02;18.80;79.00
25906;DHT22;13713;52.552;13.204;2022-12-07T15:29:28;18.80;79.10
25906;DHT22;13713;52.552;13.204;2022-12-07T15:31:54;18.70;79.10
25906;DHT22;13713;52.552;13.204;2022-12-07T15:34:19;18.70;79.00
25906;DHT22;13713;52.552;13.204;2022-12-07T15:36:45;18.70;79.00
25906;DHT22;13713;52.552;13.204;2022-12-07T15:39:11;18.60;79.10
25906;DHT22;13713;52.552;13.204;2022-12-07T15:41:37;18.60;79.20
25906;DHT22;13713;52.552;13.204;2022-12-07T15:44:03;18.60;79.40
25906;DHT22;13713;52.552;13.204;2022-12-07T15:46:47;18.60;79.40
25906;DHT22;13713;52.552;13.204;2022-12-07T15:49:17;18.50;79.30
25906;DHT22;13713;52.552;13.204;2022-12-07T15:51:44;18.50;79.20
25906;DHT22;13713;52.552;13.204;2022-12-07T15:54:13;18.50;79.20
25906;DHT22;13713;52.552;13.204;2022-12-07T15:56:41;18.40;79.60
25906;DHT22;13713;52.552;13.204;2022-12-07T15:59:06;18.40;79.00
25906;DHT22;13713;52.552;13.204;2022-12-07T16:01:32;18.50;79.10
25906;DHT22;13713;52.552;13.204;2022-12-07T16:03:58;18.30;79.80
25906;DHT22;13713;52.552;13.204;2022-12-07T16:06:24;18.30;79.10
25906;DHT22;13713;52.552;13.204;2022-12-07T16:08:50;18.30;79.20
25906;DHT22;13713;52.552;13.204;2022-12-07T16:11:16;18.30;79.20
25906;DHT22;13713;52.552;13.204;2022-12-07T16:13:42;18.30;79.30
25906;DHT22;13713;52.552;13.204;2022-12-07T16:16:12;18.20;79.20
25906;DHT22;13713;52.552;13.204;2022-12-07T16:18:38;18.20;79.10
25906;DHT22;13713;52.552;13.204;2022-12-07T16:21:04;18.20;79.10
25906;DHT22;13713;52.552;13.204;2022-12-07T16:23:30;18.20;79.20
25906;DHT22;13713;52.552;13.204;2022-12-07T16:26:13;18.10;79.10
25906;DHT22;13713;52.552;13.204;2022-12-07T16:28:39;18.10;79.10
25906;DHT22;13713;52.552;13.204;2022-12-07T16:31:13;18.10;79.10
25906;DHT22;13713;52.552;13.204;2022-12-07T16:33:41;18.00;78.90
25906;DHT22;13713;52.552;13.204;2022-12-07T16:36:08;18.10;79.00
25906;DHT22;13713;52.552;13.204;2022-12-07T16:38:35;18.00;78.90
25906;DHT22;13713;52.552;13.204;2022-12-07T16:41:01;18.00;78.80
25906;DHT22;13713;52.552;13.204;2022-12-07T16:43:27;17.90;78.80
25906;DHT22;13713;52.552;13.204;2022-12-07T16:45:53;17.90;78.80
25906;DHT22;13713;52.552;13.204;2022-12-07T16:48:18;17.90;78.90
25906;DHT22;13713;52.552;13.204;2022-12-07T16:50:45;17.90;79.00
25906;DHT22;13713;52.552;13.204;2022-12-07T16:53:13;17.90;78.90
25906;DHT22;13713;52.552;13.204;2022-12-07T16:55:40;17.90;79.00
25906;DHT22;13713;52.552;13.204;2022-12-07T16:58:06;17.80;78.80
25906;DHT22;13713;52.552;13.204;2022-12-07T17:00:32;17.90;78.90
25906;DHT22;13713;52.552;13.204;2022-12-07T17:02:58;17.80;78.80
25906;DHT22;13713;52.552;13.204;2022-12-07T17:05:24;17.80;78.80
25906;DHT22;13713;52.552;13.204;2022-12-07T17:07:50;17.70;78.80
25906;DHT22;13713;52.552;13.204;2022-12-07T17:10:16;17.70;78.90
25906;DHT22;13713;52.552;13.204;2022-12-07T17:12:42;17.70;78.80
25906;DHT22;13713;52.552;13.204;2022-12-07T17:15:09;17.70;78.80
25906;DHT22;13713;52.552;13.204;2022-12-07T17:17:54;17.70;78.80
25906;DHT22;13713;52.552;13.204;2022-12-07T17:20:22;17.70;78.70
25906;DHT22;13713;52.552;13.204;2022-12-07T17:22:49;17.60;78.70
25906;DHT22;13713;52.552;13.204;2022-12-07T17:25:15;17.60;78.70
25906;DHT22;13713;52.552;13.204;2022-12-07T17:27:42;17.60;78.70
25906;DHT22;13713;52.552;13.204;2022-12-07T17:30:09;17.60;78.70
25906;DHT22;13713;52.552;13.204;2022-12-07T17:32:35;17.60;78.70
25906;DHT22;13713;52.552;13.204;2022-12-07T17:35:00;17.50;78.70
25906;DHT22;13713;52.552;13.204;2022-12-07T17:37:26;17.50;78.70
25906;DHT22;13713;52.552;13.204;2022-12-07T17:39:52;17.60;78.80
25906;DHT22;13713;52.552;13.204;2022-12-07T17:42:23;17.50;78.70
25906;DHT22;13713;52.552;13.204;2022-12-07T17:45:02;17.50;78.80
25906;DHT22;13713;52.552;13.204;2022-12-07T17:47:28;17.50;78.80
25906;DHT22;13713;52.552;13.204;2022-12-07T17:49:54;17.50;78.80